Time;durP1;ratioP1;P1;durP2;ratioP2;P2;SDS_P1;SDS_P2;PMS_P1;PMS_P2;Temp;Humidity;BMP_temperature;BMP_pressure;BME280_temperature;BME280_humidity;BME280_pressure;Samples;Min_cycle;Max_cycle;Signal;HPM_P1;HPM_P2
2024/04/19 00:01:53;;;;;;;0.73;0.40;;;6.60;1.00;;;;;;5489284;26;20466;-51
2024/04/19 00:04:24;;;;;;;1.03;0.40;;;6.60;1.00;;;;;;5490661;26;20462;-52
2024/04/19 00:06:51;;;;;;;0.60;0.30;;;6.60;1.00;;;;;;5490956;26;20462;-53
2024/04/19 00:09:19;;;;;;;0.73;0.40;;;6.60;1.00;;;;;;5485438;26;20931;-53
2024/04/19 00:11:46;;;;;;;0.87;0.40;;;6.60;1.00;;;;;;5490836;26;20513;-49
2024/04/19 00:14:15;;;;;;;0.67;0.60;;;6.60;1.00;;;;;;5491845;26;20567;-51
2024/04/19 00:16:41;;;;;;;0.57;0.43;;;6.60;1.00;;;;;;5491220;26;20470;-52
2024/04/19 00:19:10;;;;;;;1.10;0.43;;;6.50;1.00;;;;;;5488918;26;20474;-50
2024/04/19 00:21:38;;;;;;;0.97;0.57;;;6.50;1.00;;;;;;5491124;26;21055;-51
2024/04/19 00:24:08;;;;;;;0.60;0.40;;;6.40;1.00;;;;;;5491244;26;20879;-52
2024/04/19 00:26:37;;;;;;;0.60;0.30;;;6.40;1.00;;;;;;5490733;26;20513;-50
2024/04/19 00:29:03;;;;;;;1.60;0.57;;;6.40;1.00;;;;;;5490249;26;20462;-50
2024/04/19 00:31:32;;;;;;;0.73;0.47;;;6.40;1.00;;;;;;5490906;26;20944;-52
2024/04/19 00:34:00;;;;;;;0.53;0.40;;;6.40;1.00;;;;;;5486422;26;20639;-51
2024/04/19 00:36:27;;;;;;;1.70;0.40;;;6.40;1.00;;;;;;5485909;26;20462;-48
2024/04/19 00:38:58;;;;;;;0.83;0.40;;;6.40;1.00;;;;;;5487905;26;20500;-49
2024/04/19 00:41:25;;;;;;;0.90;0.50;;;6.50;1.00;;;;;;5487870;26;20465;-51
2024/04/19 00:43:53;;;;;;;0.93;0.43;;;6.40;1.00;;;;;;5490439;26;20466;-49
2024/04/19 00:46:20;;;;;;;0.80;0.50;;;6.40;1.00;;;;;;5486223;26;20533;-49
2024/04/19 00:48:49;;;;;;;1.00;0.50;;;6.40;1.00;;;;;;5490933;26;20784;-53
2024/04/19 00:51:15;;;;;;;1.13;0.60;;;6.40;1.00;;;;;;5490101;26;20450;-50
2024/04/19 00:53:44;;;;;;;0.90;0.60;;;6.40;1.00;;;;;;5489041;26;20469;-51
2024/04/19 00:56:13;;;;;;;1.30;0.53;;;6.40;1.00;;;;;;5489940;26;20856;-52
2024/04/19 00:58:42;;;;;;;3.03;0.40;;;6.40;1.00;;;;;;5485122;26;20782;-52
2024/04/19 01:01:08;;;;;;;1.00;0.60;;;6.40;1.00;;;;;;5490313;26;20759;-48
2024/04/19 01:03:37;;;;;;;0.50;0.40;;;6.50;1.00;;;;;;5488422;26;20829;-49
2024/04/19 01:06:04;;;;;;;4.07;0.60;;;6.40;1.00;;;;;;5490014;26;20442;-52
2024/04/19 01:08:34;;;;;;;0.90;0.47;;;6.30;1.00;;;;;;5489480;26;20473;-51
2024/04/19 01:11:00;;;;;;;0.80;0.47;;;6.30;1.00;;;;;;5493150;26;20473;-51
2024/04/19 01:13:31;;;;;;;0.93;0.53;;;6.30;1.00;;;;;;5492614;26;20551;-48
2024/04/19 01:15:57;;;;;;;0.80;0.43;;;6.20;1.00;;;;;;5493137;26;20521;-51
2024/04/19 01:18:26;;;;;;;8.10;0.60;;;6.20;1.00;;;;;;5491722;26;20449;-50
2024/04/19 01:20:53;;;;;;;0.80;0.43;;;6.30;1.00;;;;;;5493935;26;20525;-51
2024/04/19 01:23:23;;;;;;;2.20;0.57;;;6.30;1.00;;;;;;5489159;26;20538;-47
2024/04/19 01:25:49;;;;;;;0.83;0.47;;;6.40;1.00;;;;;;5493553;26;20477;-49
2024/04/19 01:28:20;;;;;;;1.40;0.60;;;6.40;1.00;;;;;;5493793;26;20473;-53
2024/04/19 01:30:47;;;;;;;2.00;0.50;;;6.50;1.00;;;;;;5491445;26;21045;-51
2024/04/19 01:33:16;;;;;;;1.33;0.40;;;6.40;99.90;;;;;;5491308;26;20588;-50
2024/04/19 01:35:42;;;;;;;0.57;0.40;;;6.40;99.90;;;;;;5486617;26;20451;-52
2024/04/19 01:38:11;;;;;;;2.07;0.47;;;6.40;99.90;;;;;;5491416;26;20516;-53
2024/04/19 01:40:37;;;;;;;1.20;0.50;;;6.40;99.90;;;;;;5492196;26;20466;-51
2024/04/19 01:43:06;;;;;;;1.70;0.50;;;6.30;99.90;;;;;;5491326;26;20760;-53
2024/04/19 01:45:35;;;;;;;0.90;0.63;;;6.30;99.90;;;;;;5492803;26;20470;-51
2024/04/19 01:48:04;;;;;;;1.40;0.70;;;6.30;1.00;;;;;;5495411;26;20461;-50
2024/04/19 01:50:30;;;;;;;2.73;0.33;;;6.20;1.00;;;;;;5492825;26;20518;-49
2024/04/19 01:52:59;;;;;;;1.20;0.80;;;6.30;1.00;;;;;;5493112;26;21024;-50
2024/04/19 01:55:25;;;;;;;0.80;0.50;;;6.30;99.90;;;;;;5493594;26;20517;-51
2024/04/19 01:57:54;;;;;;;1.17;0.40;;;6.40;99.90;;;;;;5493068;26;20474;-50
2024/04/19 02:00:20;;;;;;;2.83;0.60;;;6.40;99.90;;;;;;5484302;26;20450;-49
2024/04/19 02:02:52;;;;;;;0.90;0.50;;;6.30;99.90;;;;;;5493882;26;20458;-49
2024/04/19 02:05:18;;;;;;;1.40;0.50;;;6.20;99.90;;;;;;5493322;26;20482;-52
2024/04/19 02:07:46;;;;;;;2.10;0.40;;;6.30;99.90;;;;;;5493061;26;20911;-50
2024/04/19 02:10:12;;;;;;;0.80;0.33;;;6.30;99.90;;;;;;5493254;26;21126;-51
2024/04/19 02:12:41;;;;;;;0.77;0.40;;;6.30;1.00;;;;;;5488274;26;20478;-51
2024/04/19 02:15:07;;;;;;;0.90;0.40;;;6.20;99.90;;;;;;5493127;26;20462;-48
2024/04/19 02:17:36;;;;;;;0.90;0.57;;;6.20;99.90;;;;;;5493337;26;20517;-50
2024/04/19 02:20:06;;;;;;;1.00;0.80;;;6.10;1.00;;;;;;5488838;26;20478;-54
2024/04/19 02:22:35;;;;;;;1.30;0.60;;;6.20;1.00;;;;;;5492826;26;20489;-48
2024/04/19 02:25:01;;;;;;;1.30;0.40;;;6.20;1.00;;;;;;5488732;26;20508;-51
2024/04/19 02:32:59;;;;;;;0.70;0.40;;;6.10;1.00;;;;;;5493282;26;20486;-50
2024/04/19 02:35:32;;;;;;;1.30;0.60;;;6.10;1.00;;;;;;5489330;26;20821;-50
2024/04/19 02:38:01;;;;;;;1.13;0.50;;;6.10;99.90;;;;;;5492841;26;20884;-50
2024/04/19 02:40:30;;;;;;;0.60;0.40;;;6.10;99.90;;;;;;5492185;26;20517;-50
2024/04/19 02:42:58;;;;;;;0.80;0.50;;;6.20;99.90;;;;;;5492616;26;20781;-51
2024/04/19 02:45:27;;;;;;;1.10;0.50;;;6.20;99.90;;;;;;5491885;26;20454;-52
2024/04/19 02:47:56;;;;;;;0.90;0.50;;;6.20;99.90;;;;;;5494170;26;20458;-49
2024/04/19 02:50:25;;;;;;;1.20;0.47;;;6.20;99.90;;;;;;5488415;26;20526;-53
2024/04/19 02:52:56;;;;;;;0.70;0.40;;;6.20;99.90;;;;;;5493844;26;20592;-50
2024/04/19 02:55:25;;;;;;;2.20;0.63;;;6.20;99.90;;;;;;5488362;26;20461;-50
2024/04/19 02:57:54;;;;;;;1.00;0.50;;;6.10;1.00;;;;;;5492620;26;20729;-51
2024/04/19 03:00:23;;;;;;;1.63;0.60;;;6.20;1.00;;;;;;5488215;26;20463;-48
2024/04/19 03:02:52;;;;;;;3.70;1.10;;;6.20;99.90;;;;;;5492432;26;20454;-51
2024/04/19 03:05:21;;;;;;;0.80;0.50;;;6.20;1.00;;;;;;5491510;26;20466;-50
2024/04/19 03:07:49;;;;;;;0.70;0.40;;;6.10;1.00;;;;;;5492069;26;20470;-47
2024/04/19 03:10:21;;;;;;;1.90;0.60;;;6.20;1.00;;;;;;5492202;26;20540;-49
2024/04/19 03:12:50;;;;;;;2.00;0.60;;;6.20;99.90;;;;;;5492116;26;20784;-51
2024/04/19 03:15:19;;;;;;;0.50;0.30;;;6.20;99.90;;;;;;5491790;26;20464;-53
2024/04/19 03:17:48;;;;;;;0.90;0.40;;;6.20;99.90;;;;;;5491698;26;20526;-52
2024/04/19 03:20:17;;;;;;;0.90;0.60;;;6.20;99.90;;;;;;5492551;26;20530;-51
2024/04/19 03:22:46;;;;;;;4.00;0.60;;;6.20;99.90;;;;;;5488402;26;20466;-49
2024/04/19 03:25:15;;;;;;;1.10;0.60;;;6.20;99.90;;;;;;5491500;26;20533;-52
2024/04/19 03:27:46;;;;;;;1.03;0.40;;;6.20;99.90;;;;;;5484366;26;20465;-50
2024/04/19 03:30:26;;;;;;;1.57;0.60;;;6.20;99.90;;;;;;5494999;26;20506;-50
2024/04/19 03:32:55;;;;;;;2.00;0.40;;;6.10;99.90;;;;;;5492037;26;20509;-51
2024/04/19 03:35:24;;;;;;;1.60;0.67;;;6.10;99.90;;;;;;5486959;26;20574;-52
2024/04/19 03:37:53;;;;;;;0.80;0.57;;;6.20;99.90;;;;;;5492020;26;20466;-54
2024/04/19 03:40:22;;;;;;;1.20;0.50;;;6.20;99.90;;;;;;5489957;26;20485;-53
2024/04/19 03:42:54;;;;;;;2.60;0.67;;;6.20;99.90;;;;;;5491090;26;20466;-54
2024/04/19 03:48:08;;;;;;;2.80;1.10;;;6.20;99.90;;;;;;5476542;26;20513;-52
2024/04/19 03:50:37;;;;;;;3.23;0.60;;;6.20;99.90;;;;;;5489066;26;20524;-49
2024/04/19 03:53:06;;;;;;;0.97;0.40;;;6.20;99.90;;;;;;5488420;26;20962;-52
2024/04/19 03:55:35;;;;;;;0.67;0.40;;;6.20;99.90;;;;;;5489270;26;20537;-50
2024/04/19 03:58:07;;;;;;;3.10;0.50;;;6.20;1.00;;;;;;5483086;26;20462;-52
2024/04/19 04:00:39;;;;;;;1.17;0.43;;;6.20;1.00;;;;;;5489602;26;20537;-50
2024/04/19 04:03:09;;;;;;;2.00;0.60;;;6.20;1.00;;;;;;5485458;26;20446;-52
2024/04/19 04:05:38;;;;;;;0.90;0.60;;;6.20;1.00;;;;;;5490457;26;20473;-53
2024/04/19 04:08:07;;;;;;;1.67;0.90;;;6.10;1.00;;;;;;5483142;26;20994;-53
2024/04/19 04:10:37;;;;;;;2.17;0.63;;;6.10;1.00;;;;;;5490493;26;20895;-50
2024/04/19 04:13:08;;;;;;;1.07;0.50;;;6.00;1.00;;;;;;5484270;26;20489;-54
2024/04/19 04:15:37;;;;;;;1.53;0.50;;;6.00;1.00;;;;;;5490050;26;20466;-52
2024/04/19 04:18:07;;;;;;;1.70;0.80;;;6.10;1.00;;;;;;5485794;26;20955;-51
2024/04/19 04:20:36;;;;;;;0.93;0.50;;;6.00;1.00;;;;;;5490650;26;20910;-51
2024/04/19 04:23:05;;;;;;;1.27;0.40;;;6.00;1.00;;;;;;5486653;26;20896;-53
2024/04/19 04:25:33;;;;;;;1.10;0.50;;;6.00;1.00;;;;;;5492100;26;20470;-52
2024/04/19 04:28:02;;;;;;;3.23;0.60;;;6.00;1.00;;;;;;5489267;26;20466;-54
2024/04/19 04:30:35;;;;;;;1.07;0.53;;;6.00;1.00;;;;;;5488329;26;20514;-54
2024/04/19 04:33:04;;;;;;;1.07;0.60;;;6.00;1.00;;;;;;5482012;26;20462;-54
2024/04/19 04:35:33;;;;;;;3.90;0.63;;;6.00;1.00;;;;;;5485943;26;20602;-53
2024/04/19 04:38:02;;;;;;;0.97;0.43;;;6.00;1.00;;;;;;5487020;26;20579;-52
2024/04/19 04:40:32;;;;;;;1.20;0.80;;;6.00;1.00;;;;;;5488233;26;20523;-50
2024/04/19 04:43:00;;;;;;;4.90;1.20;;;6.00;1.00;;;;;;5488616;26;20579;-50
2024/04/19 04:45:33;;;;;;;2.47;0.77;;;6.10;1.00;;;;;;5491603;26;20442;-53
2024/04/19 04:48:01;;;;;;;1.70;0.60;;;6.10;1.00;;;;;;5492251;26;20567;-51
2024/04/19 04:50:30;;;;;;;1.30;0.70;;;6.10;1.00;;;;;;5497072;26;21034;-53
2024/04/19 04:53:01;;;;;;;0.90;0.60;;;6.20;1.00;;;;;;5494412;26;20531;-52
2024/04/19 04:55:31;;;;;;;0.63;0.40;;;6.20;1.00;;;;;;5488094;26;20469;-51
2024/04/19 04:58:01;;;;;;;0.83;0.50;;;6.30;1.00;;;;;;5487581;26;20465;-50
2024/04/19 05:00:30;;;;;;;3.50;0.70;;;6.30;1.00;;;;;;5486851;26;20450;-53
2024/04/19 05:03:04;;;;;;;0.90;0.60;;;6.30;1.00;;;;;;5488684;26;20450;-54
2024/04/19 05:05:33;;;;;;;2.90;0.70;;;6.40;1.00;;;;;;5482982;26;20465;-51
2024/04/19 05:08:05;;;;;;;1.00;0.60;;;6.40;1.00;;;;;;5490488;26;20975;-48
2024/04/19 05:10:34;;;;;;;1.10;0.60;;;6.40;1.00;;;;;;5491704;26;20512;-51
2024/04/19 05:13:02;;;;;;;1.23;0.90;;;6.40;1.00;;;;;;5493963;26;20463;-51
2024/04/19 05:15:31;;;;;;;1.53;0.60;;;6.40;1.00;;;;;;5506875;26;20926;-53
2024/04/19 05:18:02;;;;;;;0.60;0.50;;;6.40;1.00;;;;;;5501690;26;20446;-52
2024/04/19 05:20:31;;;;;;;1.37;0.63;;;6.30;1.00;;;;;;5462150;26;20459;-51
2024/04/19 05:23:00;;;;;;;1.20;0.50;;;6.40;1.00;;;;;;5458582;26;20455;-54
2024/04/19 05:25:29;;;;;;;1.40;0.50;;;6.50;1.00;;;;;;5501214;26;20464;-52
2024/04/19 05:27:58;;;;;;;2.20;0.57;;;6.50;1.00;;;;;;5489466;26;20582;-54
2024/04/19 05:30:27;;;;;;;3.40;0.60;;;6.50;1.00;;;;;;5502112;26;20453;-50
2024/04/19 05:32:56;;;;;;;3.57;0.70;;;6.50;1.00;;;;;;5523434;26;20831;-51
2024/04/19 05:35:29;;;;;;;0.93;0.67;;;6.50;1.00;;;;;;5524578;26;20516;-48
2024/04/19 05:37:58;;;;;;;0.90;0.60;;;6.50;1.00;;;;;;5525229;26;20819;-52
2024/04/19 05:40:28;;;;;;;1.00;0.50;;;6.50;1.00;;;;;;5525505;26;20559;-49
2024/04/19 05:42:56;;;;;;;2.37;0.63;;;6.70;1.00;;;;;;5527186;26;20562;-49
2024/04/19 05:45:25;;;;;;;1.10;0.63;;;6.70;1.00;;;;;;5521033;26;20449;-54
2024/04/19 05:47:57;;;;;;;1.63;0.80;;;6.80;1.00;;;;;;5520481;26;20452;-52
2024/04/19 05:50:30;;;;;;;2.00;0.60;;;6.80;1.00;;;;;;5522566;26;20514;-54
2024/04/19 05:52:58;;;;;;;1.40;0.60;;;7.00;1.00;;;;;;5522426;26;20906;-50
2024/04/19 05:55:27;;;;;;;1.10;0.63;;;7.00;1.00;;;;;;5521595;26;20933;-54
2024/04/19 05:57:56;;;;;;;2.17;0.67;;;6.90;1.00;;;;;;5479468;26;20465;-50
2024/04/19 06:00:25;;;;;;;5.03;0.80;;;6.90;1.00;;;;;;5484364;26;20696;-52
2024/04/19 06:02:53;;;;;;;1.13;0.60;;;6.90;1.00;;;;;;5483293;26;20458;-51
2024/04/19 06:05:22;;;;;;;2.80;0.50;;;7.00;1.00;;;;;;5478026;26;20475;-51
2024/04/19 06:07:53;;;;;;;1.00;0.43;;;7.00;99.90;;;;;;5501825;26;20563;-49
2024/04/19 06:10:24;;;;;;;1.00;0.47;;;7.10;99.90;;;;;;5461824;26;20510;-53
2024/04/19 06:12:53;;;;;;;1.77;0.60;;;7.20;99.90;;;;;;5485938;26;20529;-52
2024/04/19 06:15:23;;;;;;;1.00;0.60;;;7.30;99.90;;;;;;5489325;26;20441;-49
2024/04/19 06:17:51;;;;;;;1.37;0.50;;;7.40;99.90;;;;;;5486325;26;20457;-47
2024/04/19 06:20:20;;;;;;;0.70;0.43;;;7.40;99.90;;;;;;5485591;26;20508;-50
2024/04/19 06:22:49;;;;;;;0.90;0.50;;;7.50;99.90;;;;;;5486357;26;20561;-53
2024/04/19 06:25:20;;;;;;;1.20;0.50;;;7.60;99.90;;;;;;5486255;26;20466;-51
2024/04/19 06:27:50;;;;;;;0.83;0.50;;;7.50;99.90;;;;;;5485551;26;21064;-51
2024/04/19 06:30:19;;;;;;;2.27;0.70;;;7.50;99.90;;;;;;5486545;26;20912;-52
2024/04/19 06:32:45;;;;;;;1.03;0.50;;;7.50;99.90;;;;;;5488156;26;20511;-50
2024/04/19 06:35:16;;;;;;;2.40;0.60;;;7.60;99.90;;;;;;5490409;26;20462;-54
2024/04/19 06:37:44;;;;;;;2.33;0.50;;;7.60;99.90;;;;;;5491100;26;20458;-52
2024/04/19 06:40:13;;;;;;;0.70;0.40;;;7.70;99.90;;;;;;5487505;26;20454;-51
2024/04/19 06:42:45;;;;;;;0.60;0.40;;;7.80;99.90;;;;;;5489143;26;20473;-53
2024/04/19 06:45:11;;;;;;;1.20;0.60;;;8.00;99.90;;;;;;5487182;26;20546;-53
2024/04/19 06:47:40;;;;;;;1.33;0.30;;;8.10;99.90;;;;;;5490186;26;20446;-53
2024/04/19 06:50:09;;;;;;;2.23;0.47;;;8.00;99.90;;;;;;5486995;26;20568;-54
2024/04/19 06:52:38;;;;;;;2.00;0.40;;;7.90;99.90;;;;;;5488194;26;20464;-55
2024/04/19 06:55:07;;;;;;;0.77;0.40;;;7.80;99.90;;;;;;5488561;26;20465;-54
2024/04/19 06:57:36;;;;;;;0.87;0.40;;;7.90;99.90;;;;;;5489823;26;20503;-53
2024/04/19 07:00:09;;;;;;;2.37;0.50;;;8.00;99.90;;;;;;5486594;26;20778;-53
2024/04/19 07:02:37;;;;;;;0.93;0.40;;;8.20;99.90;;;;;;5510828;26;20464;-53
2024/04/19 07:05:06;;;;;;;0.67;0.50;;;8.40;99.90;;;;;;5499408;26;20592;-54
2024/04/19 07:07:36;;;;;;;0.87;0.40;;;8.50;99.90;;;;;;5485914;26;20458;-53
2024/04/19 07:10:05;;;;;;;0.70;0.40;;;8.40;99.90;;;;;;5487836;26;20520;-58
2024/04/19 07:12:34;;;;;;;1.20;0.50;;;8.50;99.90;;;;;;5485545;26;20538;-53
2024/04/19 07:15:03;;;;;;;0.63;0.40;;;8.40;99.90;;;;;;5502234;26;20454;-53
2024/04/19 07:17:36;;;;;;;0.80;0.50;;;8.30;99.90;;;;;;5492692;26;20478;-53
2024/04/19 07:20:05;;;;;;;0.77;0.50;;;8.00;99.90;;;;;;5486584;26;20470;-54
2024/04/19 07:22:33;;;;;;;1.40;0.60;;;7.80;99.90;;;;;;5485728;26;20457;-54
2024/04/19 07:25:02;;;;;;;0.63;0.43;;;7.80;99.90;;;;;;5486297;26;20453;-56
2024/04/19 07:27:31;;;;;;;1.33;0.60;;;7.80;99.90;;;;;;5484919;26;20496;-54
2024/04/19 07:29:59;;;;;;;1.23;0.50;;;8.00;1.00;;;;;;5485090;26;20430;-55
2024/04/19 07:32:28;;;;;;;0.93;0.50;;;8.10;1.00;;;;;;5469276;26;20510;-52
2024/04/19 07:34:59;;;;;;;1.07;0.30;;;8.20;1.00;;;;;;5483643;26;20501;-57
2024/04/19 07:37:29;;;;;;;0.80;0.37;;;7.80;1.00;;;;;;5486848;26;20704;-54
2024/04/19 07:39:58;;;;;;;0.97;0.40;;;7.70;1.00;;;;;;5485475;26;20462;-57
2024/04/19 07:42:29;;;;;;;1.37;0.50;;;7.80;1.00;;;;;;5486758;26;20450;-56
2024/04/19 07:44:57;;;;;;;2.97;0.50;;;7.80;1.00;;;;;;5486482;26;20441;-57
2024/04/19 07:47:27;;;;;;;2.20;0.60;;;7.90;1.00;;;;;;5486119;26;20466;-57
2024/04/19 07:49:59;;;;;;;0.80;0.47;;;8.10;1.00;;;;;;5486716;26;21003;-57
2024/04/19 07:52:27;;;;;;;1.50;0.70;;;8.00;1.00;;;;;;5488038;26;20462;-56
2024/04/19 07:54:56;;;;;;;1.67;0.70;;;7.90;1.00;;;;;;5486741;26;20525;-56
2024/04/19 07:57:25;;;;;;;0.90;0.50;;;7.80;1.00;;;;;;5484081;26;20990;-54
2024/04/19 07:59:53;;;;;;;0.60;0.47;;;7.80;1.00;;;;;;5482038;26;21194;-57
2024/04/19 08:02:22;;;;;;;0.70;0.50;;;7.70;1.00;;;;;;5482515;26;20457;-57
2024/04/19 08:04:51;;;;;;;0.80;0.50;;;7.40;1.00;;;;;;5483190;26;20462;-57
2024/04/19 08:07:25;;;;;;;0.60;0.30;;;7.20;1.00;;;;;;5486486;26;20704;-56
2024/04/19 08:09:54;;;;;;;1.80;0.50;;;7.20;1.00;;;;;;5496037;26;20567;-56
2024/04/19 08:12:23;;;;;;;1.47;0.50;;;7.00;1.00;;;;;;5509352;26;20516;-56
2024/04/19 08:14:51;;;;;;;0.87;0.40;;;7.10;1.00;;;;;;5520755;26;20452;-55
2024/04/19 08:17:20;;;;;;;1.00;0.50;;;7.20;1.00;;;;;;5512398;26;20466;-57
2024/04/19 08:19:50;;;;;;;1.80;0.57;;;7.40;1.00;;;;;;5514701;26;20812;-56
2024/04/19 08:22:18;;;;;;;1.30;0.53;;;7.40;1.00;;;;;;5524807;26;20539;-56
2024/04/19 08:24:50;;;;;;;0.80;0.50;;;7.60;1.00;;;;;;5524983;26;20449;-55
2024/04/19 08:27:20;;;;;;;1.03;0.50;;;7.50;1.00;;;;;;5514356;26;20456;-57
2024/04/19 08:29:48;;;;;;;0.80;0.50;;;7.40;1.00;;;;;;5501042;26;20870;-56
2024/04/19 08:32:17;;;;;;;0.77;0.40;;;7.40;1.00;;;;;;5519618;26;20577;-56
2024/04/19 08:34:50;;;;;;;1.53;0.50;;;7.30;1.00;;;;;;5499532;26;20624;-53
2024/04/19 08:37:19;;;;;;;0.73;0.50;;;7.30;1.00;;;;;;5505208;26;20511;-54
2024/04/19 08:39:53;;;;;;;1.03;0.67;;;7.40;1.00;;;;;;5496087;26;20579;-57
2024/04/19 08:42:22;;;;;;;0.90;0.40;;;7.40;1.00;;;;;;5495149;26;20788;-57
2024/04/19 08:44:52;;;;;;;3.27;0.60;;;7.50;1.00;;;;;;5507141;26;20449;-53
2024/04/19 08:47:21;;;;;;;4.57;1.60;;;7.40;1.00;;;;;;5511154;26;20458;-55
2024/04/19 08:49:50;;;;;;;0.73;0.50;;;7.30;1.00;;;;;;5511200;26;20464;-53
2024/04/19 08:52:20;;;;;;;0.60;0.40;;;7.10;1.00;;;;;;5507878;26;20531;-55
2024/04/19 08:54:53;;;;;;;4.43;0.93;;;7.00;1.00;;;;;;5510268;26;20524;-54
2024/04/19 08:57:26;;;;;;;1.57;0.30;;;7.00;1.00;;;;;;5515321;26;20944;-56
2024/04/19 08:59:56;;;;;;;1.50;0.50;;;6.90;1.00;;;;;;5510992;26;20512;-54
2024/04/19 09:02:24;;;;;;;0.40;0.30;;;6.90;1.00;;;;;;5520398;26;20512;-55
2024/04/19 09:04:54;;;;;;;0.60;0.23;;;6.90;1.00;;;;;;5515621;26;20472;-56
2024/04/19 09:07:22;;;;;;;0.67;0.40;;;6.90;1.00;;;;;;5513029;26;20469;-57
2024/04/19 09:09:55;;;;;;;0.70;0.30;;;6.70;1.00;;;;;;5507807;26;20457;-56
2024/04/19 09:12:24;;;;;;;0.90;0.50;;;6.70;9.70;;;;;;5504466;26;20506;-56
2024/04/19 09:14:54;;;;;;;0.73;0.30;;;6.60;16.20;;;;;;5501873;26;20560;-55
2024/04/19 09:17:23;;;;;;;0.83;0.40;;;6.60;42.60;;;;;;5497515;26;20463;-55
2024/04/19 09:19:53;;;;;;;0.90;0.43;;;6.70;28.90;;;;;;5499924;26;20462;-56
2024/04/19 09:22:22;;;;;;;1.20;0.40;;;6.50;32.70;;;;;;5493037;26;20959;-57
2024/04/19 09:24:54;;;;;;;0.63;0.43;;;6.70;80.80;;;;;;5497757;26;20719;-55
2024/04/19 09:27:23;;;;;;;0.70;0.37;;;6.70;44.90;;;;;;5506870;26;20464;-54
2024/04/19 09:29:53;;;;;;;0.80;0.33;;;6.60;43.20;;;;;;5512824;26;20507;-55
2024/04/19 09:32:23;;;;;;;2.00;0.40;;;6.30;55.10;;;;;;5500658;26;20521;-56
2024/04/19 09:34:51;;;;;;;0.50;0.30;;;6.10;46.90;;;;;;5497195;26;20483;-56
2024/04/19 09:37:21;;;;;;;1.63;0.60;;;6.20;78.60;;;;;;5502547;26;20448;-56
2024/04/19 09:39:53;;;;;;;1.30;0.43;;;6.20;92.80;;;;;;5489998;26;20498;-53
2024/04/19 09:42:24;;;;;;;0.90;0.30;;;6.20;99.90;;;;;;5491659;26;20504;-56
2024/04/19 09:44:54;;;;;;;0.77;0.30;;;6.20;96.30;;;;;;5451852;26;20463;-54
2024/04/19 09:47:25;;;;;;;0.60;0.30;;;6.20;95.40;;;;;;5485129;26;20469;-55
2024/04/19 09:49:59;;;;;;;0.57;0.30;;;6.20;94.10;;;;;;5480164;26;20474;-58
2024/04/19 09:52:32;;;;;;;0.60;0.40;;;6.20;99.90;;;;;;5483291;26;20819;-55
2024/04/19 09:55:11;;;;;;;0.40;0.23;;;6.20;98.60;;;;;;5484841;26;21024;-59
2024/04/19 09:57:45;;;;;;;0.77;0.40;;;6.20;99.90;;;;;;5489069;26;20799;-59
2024/04/19 10:00:17;;;;;;;0.50;0.23;;;6.10;99.90;;;;;;5489659;26;20518;-58
2024/04/19 10:02:44;;;;;;;0.70;0.40;;;6.10;99.90;;;;;;5490705;26;20508;-58
2024/04/19 10:05:13;;;;;;;0.90;0.40;;;6.20;99.90;;;;;;5517943;26;20521;-56
2024/04/19 10:07:45;;;;;;;0.90;0.50;;;6.20;99.90;;;;;;5522460;26;20456;-59
2024/04/19 10:10:16;;;;;;;0.67;0.40;;;6.20;99.90;;;;;;5481146;26;20516;-54
2024/04/19 10:12:46;;;;;;;0.77;0.40;;;6.20;99.90;;;;;;5448855;26;20580;-56
2024/04/19 10:15:16;;;;;;;1.63;0.30;;;6.20;99.90;;;;;;5426798;26;20468;-54
2024/04/19 10:17:45;;;;;;;1.40;0.43;;;6.50;99.90;;;;;;5449532;26;20483;-56
2024/04/19 10:20:14;;;;;;;0.53;0.40;;;6.60;99.90;;;;;;5419401;26;20465;-53
2024/04/19 10:22:43;;;;;;;0.80;0.47;;;6.70;99.90;;;;;;5421061;26;20471;-57
2024/04/19 10:25:12;;;;;;;1.07;0.33;;;6.50;99.90;;;;;;5422902;26;20928;-56
2024/04/19 10:27:50;;;;;;;0.80;0.30;;;6.60;99.90;;;;;;5414001;26;20540;-55
2024/04/19 10:30:20;;;;;;;0.70;0.47;;;6.50;99.90;;;;;;5420004;26;20466;-57
2024/04/19 10:32:53;;;;;;;3.23;0.47;;;6.40;99.90;;;;;;5444862;26;20467;-57
2024/04/19 10:35:23;;;;;;;1.13;0.47;;;6.40;99.90;;;;;;5420770;26;20800;-58
2024/04/19 10:37:52;;;;;;;2.17;0.50;;;6.40;99.90;;;;;;5434779;26;21153;-58
2024/04/19 10:40:22;;;;;;;0.60;0.40;;;6.40;99.90;;;;;;5402005;26;20516;-57
2024/04/19 10:43:03;;;;;;;0.67;0.30;;;6.40;99.90;;;;;;5420543;26;20998;-57
2024/04/19 10:45:32;;;;;;;2.87;0.50;;;6.60;99.90;;;;;;5414220;26;20631;-57
2024/04/19 10:48:02;;;;;;;1.00;0.63;;;6.50;99.90;;;;;;5413404;26;20488;-56
2024/04/19 10:50:31;;;;;;;0.63;0.33;;;6.60;99.90;;;;;;5412351;26;20543;-57
2024/04/19 10:53:01;;;;;;;0.50;0.37;;;6.80;99.90;;;;;;5413744;26;20581;-58
2024/04/19 10:55:30;;;;;;;1.70;0.30;;;7.00;99.90;;;;;;5414767;26;20628;-56
2024/04/19 10:58:02;;;;;;;0.60;0.30;;;7.10;99.90;;;;;;5416039;26;20517;-57
2024/04/19 11:00:31;;;;;;;1.13;0.40;;;7.00;99.90;;;;;;5432320;26;20480;-58
2024/04/19 11:03:01;;;;;;;0.47;0.33;;;6.80;99.90;;;;;;5417022;26;20601;-59
2024/04/19 11:05:31;;;;;;;1.13;0.40;;;7.00;99.90;;;;;;5435187;26;20459;-57
2024/04/19 11:07:59;;;;;;;0.80;0.40;;;7.00;99.90;;;;;;5427167;26;20575;-61
2024/04/19 11:10:28;;;;;;;0.93;0.43;;;6.90;99.90;;;;;;5416050;26;20479;-58
2024/04/19 11:12:57;;;;;;;0.60;0.30;;;7.10;99.90;;;;;;5444467;26;20592;-58
2024/04/19 11:15:29;;;;;;;0.87;0.40;;;6.90;99.90;;;;;;5466094;26;21284;-53
2024/04/19 11:17:58;;;;;;;0.50;0.40;;;6.80;99.90;;;;;;5458780;26;20582;-53
2024/04/19 11:20:26;;;;;;;0.50;0.30;;;6.90;99.90;;;;;;5451848;26;20463;-52
2024/04/19 11:22:55;;;;;;;0.60;0.30;;;6.80;99.90;;;;;;5474975;26;20712;-54
2024/04/19 11:25:24;;;;;;;0.80;0.40;;;6.80;99.90;;;;;;5471258;26;20767;-52
2024/04/19 11:27:53;;;;;;;0.60;0.23;;;6.90;99.90;;;;;;5452802;26;20462;-52
2024/04/19 11:30:23;;;;;;;1.37;0.40;;;6.90;99.90;;;;;;5454392;26;20485;-49
2024/04/19 11:32:55;;;;;;;0.50;0.30;;;6.90;99.90;;;;;;5452312;26;20454;-49
2024/04/19 11:35:23;;;;;;;0.60;0.40;;;6.90;99.90;;;;;;5454582;26;20586;-52
2024/04/19 11:37:53;;;;;;;3.50;0.90;;;6.90;99.90;;;;;;5453250;26;20593;-53
2024/04/19 11:40:20;;;;;;;1.20;0.60;;;6.90;99.90;;;;;;5456537;26;21089;-51
2024/04/19 11:42:50;;;;;;;1.13;0.40;;;6.70;99.90;;;;;;5456685;26;20942;-50
2024/04/19 11:45:20;;;;;;;0.63;0.30;;;6.80;99.90;;;;;;5459194;26;20565;-49
2024/04/19 11:47:50;;;;;;;1.20;0.60;;;7.00;99.90;;;;;;5447346;26;21078;-56
2024/04/19 11:50:23;;;;;;;0.40;0.30;;;6.80;99.90;;;;;;5476505;26;20950;-50
2024/04/19 11:52:52;;;;;;;0.60;0.33;;;6.80;99.90;;;;;;5455073;26;20517;-52
2024/04/19 11:55:20;;;;;;;0.50;0.20;;;6.80;99.90;;;;;;5445230;26;20463;-50
2024/04/19 11:57:49;;;;;;;3.67;0.30;;;6.80;99.90;;;;;;5450989;26;20525;-52
2024/04/19 12:00:19;;;;;;;1.27;0.20;;;6.90;99.90;;;;;;5444746;26;20850;-53
2024/04/19 12:02:49;;;;;;;0.50;0.30;;;6.90;99.90;;;;;;5451244;26;21237;-50
2024/04/19 12:05:18;;;;;;;0.40;0.20;;;6.70;99.90;;;;;;5448424;26;20967;-51
2024/04/19 12:07:50;;;;;;;0.60;0.33;;;6.60;99.90;;;;;;5452545;26;20463;-49
2024/04/19 12:10:18;;;;;;;0.40;0.20;;;6.60;99.90;;;;;;5444395;26;20464;-54
2024/04/19 12:12:47;;;;;;;0.37;0.20;;;6.70;99.90;;;;;;5447137;26;20464;-54
2024/04/19 12:15:16;;;;;;;0.40;0.20;;;6.60;99.90;;;;;;5459771;26;20691;-52
2024/04/19 12:17:44;;;;;;;0.60;0.27;;;6.70;99.90;;;;;;5461569;26;20470;-54
2024/04/19 12:20:13;;;;;;;0.50;0.20;;;6.70;99.90;;;;;;5450992;26;21004;-51
2024/04/19 12:22:42;;;;;;;0.80;0.40;;;6.70;99.90;;;;;;5455413;26;20657;-50
2024/04/19 12:25:14;;;;;;;0.90;0.20;;;6.50;99.90;;;;;;5450441;26;20469;-49
2024/04/19 12:27:43;;;;;;;0.40;0.23;;;6.50;99.90;;;;;;5456005;26;20947;-51
2024/04/19 12:30:12;;;;;;;0.50;0.30;;;6.50;99.90;;;;;;5455170;26;20506;-50
2024/04/19 12:32:41;;;;;;;0.47;0.20;;;6.60;99.90;;;;;;5455425;26;20899;-52
2024/04/19 12:35:09;;;;;;;0.40;0.20;;;6.60;99.90;;;;;;5454856;26;20481;-53
2024/04/19 12:37:38;;;;;;;0.60;0.20;;;6.80;99.90;;;;;;5452905;26;20450;-52
2024/04/19 12:40:08;;;;;;;0.37;0.20;;;6.80;99.90;;;;;;5464782;26;20465;-53
2024/04/19 12:42:40;;;;;;;0.40;0.20;;;7.00;99.90;;;;;;5481943;26;21396;-56
2024/04/19 12:45:10;;;;;;;0.53;0.20;;;7.00;99.90;;;;;;5452563;26;20483;-51
2024/04/19 12:47:38;;;;;;;0.43;0.20;;;7.10;99.90;;;;;;5452767;26;20471;-51
2024/04/19 12:50:08;;;;;;;0.30;0.10;;;7.00;99.90;;;;;;5467173;26;20478;-49
2024/04/19 12:52:36;;;;;;;0.40;0.10;;;7.30;99.90;;;;;;5487014;26;20465;-52
2024/04/19 12:55:06;;;;;;;0.30;0.10;;;7.20;99.90;;;;;;5486926;26;20493;-50
2024/04/19 12:57:35;;;;;;;0.30;0.17;;;7.20;99.90;;;;;;5484646;26;20793;-51
2024/04/19 13:00:07;;;;;;;0.30;0.20;;;7.40;99.90;;;;;;5485018;26;20462;-53
2024/04/19 13:02:36;;;;;;;0.60;0.30;;;7.40;99.90;;;;;;5456078;26;20466;-51
2024/04/19 13:05:05;;;;;;;0.50;0.10;;;7.30;64.90;;;;;;5487048;26;20518;-52
2024/04/19 13:07:34;;;;;;;0.40;0.20;;;7.30;99.90;;;;;;5494041;26;20458;-51
2024/04/19 13:10:03;;;;;;;0.50;0.20;;;7.10;70.30;;;;;;5489858;26;20527;-51
2024/04/19 13:12:31;;;;;;;0.40;0.20;;;7.20;67.40;;;;;;5512368;26;20472;-47
2024/04/19 13:15:00;;;;;;;0.40;0.20;;;7.20;55.60;;;;;;5525700;26;20452;-49
2024/04/19 13:17:32;;;;;;;0.30;0.10;;;7.40;78.60;;;;;;5521340;26;20525;-52
2024/04/19 13:20:01;;;;;;;0.30;0.10;;;7.50;54.90;;;;;;5519820;26;20577;-51
2024/04/19 13:22:30;;;;;;;0.53;0.23;;;7.50;45.00;;;;;;5521654;26;21218;-51